Flight Track Log - Related Links

Times and Time Zones

All times are in EDT time to prevent confusion due to time zone crossing. See the UAL33 flight status page for this flight to view local times or setup timezone preferences in your user account.

Time Position Orientation Groundspeed Altitude Reporting Facility
EDT Latitude Longitude Course Direction KTS MPH feet Rate Location/Type
Mon 21:45:22 41.9770 -87.9140 247° West 24 28  Level FlightAware ADS-B
Mon 21:45:52 41.9780 -87.9150 323° Northwest 19 22 255 Level FlightAware ADS-B
Mon 21:46:18 41.9790 -87.9160 323° Northwest 28 32 275 Level FlightAware ADS-B
Mon 21:46:48 41.9800 -87.9180 304° West 29 33 294 Level FlightAware ADS-B
Mon 21:47:04 41.9810 -87.9180 360° North 29 33 320 Level FlightAware ADS-B
Mon 21:47:30 41.9820 -87.9190 323° Northwest 23 26 336 Level FlightAware ADS-B
Mon 21:48:01 41.9820 -87.9210 270° West 24 28 366 Level FlightAware ADS-B
Mon 21:48:38 41.9830 -87.9200 37° Northeast 24 28 409 Level FlightAware ADS-B
Mon 21:50:20 41.9830 -87.9190 90° East 16 18 476 Level FlightAware ADS-B
Mon 21:51:00 41.9840 -87.9180 37° Northeast 23 26 864 Level FlightAware ADS-B
Mon 21:51:41 41.9840 -87.9140 90° East 70 81 1,271 Level FlightAware ADS-B
Mon 21:52:25 41.9830 -87.8740 92° East 168 193 1,800 2,464 Climbing FlightAware ADS-B
Mon 21:52:37 41.9770 -87.8630 126° Southeast 184 212 2,300 2,143 Climbing FlightAware ADS-B
Mon 21:52:53 41.9640 -87.8530 150° Southeast 213 245 2,800 2,154 Climbing FlightAware ADS-B
Mon 21:53:16 41.9410 -87.8480 171° South 250 288 3,700 2,291 Climbing FlightAware ADS-B
Mon 21:53:48 41.9010 -87.8410 173° South 284 327 4,900 1,548 Climbing FlightAware ADS-B
Mon 21:54:18 41.8600 -87.8350 174° South 288 331 5,300 2,069 Climbing FlightAware ADS-B
Mon 21:54:46 41.8240 -87.8390 185° South 285 328 6,900 3,692 Climbing FlightAware ADS-B
Mon 21:54:57 41.8090 -87.8460 199° South 289 333 7,700 4,154 Climbing FlightAware ADS-B
Mon 21:55:25 41.7730 -87.8630 199° South 299 344 9,600 3,718 Climbing FlightAware ADS-B
Mon 21:56:08 41.7150 -87.8880 198° South 323 372 12,100 3,106 Climbing FlightAware ADS-B
Mon 21:56:50 41.6510 -87.9190 200° South 370 426 14,000 3,209 Climbing FlightAware ADS-B
Mon 21:57:34 41.5790 -87.9510 198° South 383 441 16,700 3,659 Climbing FlightAware ADS-B
Mon 21:58:12 41.5140 -87.9810 199° South 393 452 19,000 3,318 Climbing FlightAware ADS-B
Mon 21:58:59 41.4300 -88.0190 199° South 414 476 21,400 2,512 Climbing FlightAware ADS-B
Mon 21:59:38 41.3540 -88.0480 196° South 452 520 22,600 2,175 Climbing FlightAware ADS-B
Mon 22:00:19 41.2780 -88.0740 194° South 468 539 24,300 2,581 Climbing FlightAware ADS-B
Mon 22:01:04 41.1720 -88.1070 193° South 493 567 26,300 2,581 Climbing FlightAware ADS-B
Mon 22:01:45 41.0780 -88.1330 192° South 508 585 28,000 2,561 Climbing FlightAware ADS-B
Mon 22:02:26 40.9850 -88.1590 192° South 516 594 29,800 2,541 Climbing FlightAware ADS-B
Mon 22:03:10 40.8800 -88.1890 192° South 523 602 31,600 2,259 Climbing FlightAware ADS-B
Mon 22:03:51 40.7830 -88.2160 192° South 528 608 33,000 2,074 Climbing FlightAware ADS-B
Mon 22:04:31 40.6850 -88.2440 192° South 532 612 34,400 2,329 Climbing FlightAware ADS-B
Mon 22:05:16 40.5800 -88.2740 192° South 521 600 36,300 2,259 Climbing FlightAware ADS-B
Mon 22:05:56 40.4870 -88.3000 192° South 519 597 37,600 1,636 Climbing FlightAware ADS-B
Mon 22:06:33 40.3990 -88.3250 192° South 523 602 38,400 1,500 Climbing FlightAware ADS-B
Mon 22:07:20 40.2910 -88.3700 198° South 514 592 39,700 932 Climbing FlightAware ADS-B
Mon 22:08:16 40.1750 -88.4540 209° Southwest 506 582 40,000 182 Climbing FlightAware ADS-B
Mon 22:08:59 40.0860 -88.5200 210° Southwest 504 580 40,000  Level FlightAware ADS-B
Mon 22:09:40 40.0050 -88.5800 210° Southwest 504 580 40,000  Level FlightAware ADS-B
Mon 22:10:20 39.9230 -88.6400 209° Southwest 504 580 40,000  Level FlightAware ADS-B
Mon 22:10:58 39.8480 -88.6950 209° Southwest 502 578 40,000  Level FlightAware ADS-B
Mon 22:11:46 39.7480 -88.7680 209° Southwest 508 585 40,000  Level FlightAware ADS-B
Mon 22:12:30 39.6590 -88.8330 209° Southwest 511 588 40,000  Level FlightAware ADS-B
Mon 22:13:07 39.5810 -88.8900 209° Southwest 511 588 40,000  Level FlightAware ADS-B
Mon 22:13:54 39.4840 -88.9610 209° Southwest 510 587 40,000  Level FlightAware ADS-B
Mon 22:14:31 39.4090 -89.0150 209° Southwest 509 586 40,000  Level FlightAware ADS-B
Mon 22:15:15 39.3190 -89.0790 209° Southwest 509 586 40,000  Level FlightAware ADS-B
Mon 22:16:13 39.1980 -89.1660 209° Southwest 509 586 40,000  Level FlightAware ADS-B
Mon 22:16:48 39.1260 -89.2180 209° Southwest 507 583 40,000  Level FlightAware ADS-B
Mon 22:17:37 39.0280 -89.2880 209° Southwest 504 580 40,000  Level FlightAware ADS-B
Mon 22:18:17 38.9510 -89.3430 209° Southwest 504 580 40,000  Level FlightAware ADS-B
Mon 22:18:59 38.8620 -89.4060 209° Southwest 503 579 40,000  Level FlightAware ADS-B
Mon 22:19:43 38.7750 -89.4680 209° Southwest 501 577 40,000  Level FlightAware ADS-B
Mon 22:20:22 38.6920 -89.5270 209° Southwest 500 575 40,000  Level FlightAware ADS-B
Mon 22:20:59 38.6180 -89.5790 209° Southwest 500 575 40,000  Level FlightAware ADS-B
Mon 22:21:43 38.5330 -89.6390 209° Southwest 501 577 40,000  Level FlightAware ADS-B
Mon 22:22:23 38.4630 -89.6860 208° Southwest 501 577 40,000  Level FlightAware ADS-B
Mon 22:23:05 38.3610 -89.7590 209° Southwest 502 578 40,000  Level FlightAware ADS-B
Mon 22:23:47 38.2740 -89.8200 209° Southwest 505 581 40,000  Level FlightAware ADS-B
Mon 22:24:39 38.1820 -89.8820 208° Southwest 505 581 40,000  Level FlightAware ADS-B
Mon 22:25:18 38.0910 -89.9470 209° Southwest 508 585 40,000  Level FlightAware ADS-B
Mon 22:25:56 38.0240 -89.9920 208° Southwest 508 585 40,000  Level FlightAware ADS-B
Mon 22:26:42 37.9110 -90.0710 209° Southwest 514 592 40,000  Level FlightAware ADS-B
Mon 22:27:24 37.8370 -90.1210 208° Southwest 514 592 40,000  Level FlightAware ADS-B
Mon 22:28:01 37.7710 -90.1650 208° Southwest 514 592 40,000  Level FlightAware ADS-B
Mon 22:28:49 37.6850 -90.2230 208° Southwest 514 592 40,000  Level FlightAware ADS-B
Mon 22:29:25 37.6210 -90.2660 208° Southwest 514 592 40,000  Level FlightAware ADS-B
Mon 22:30:14 37.5340 -90.3250 208° Southwest 514 592 40,000  Level FlightAware ADS-B
Mon 22:30:51 37.4680 -90.3690 208° Southwest 514 592 40,000  Level FlightAware ADS-B
Mon 22:31:39 37.3820 -90.4260 208° Southwest 514 592 40,000  Level FlightAware ADS-B
Mon 22:32:19 37.2030 -90.5510 209° Southwest 517 595 40,000  Level FlightAware ADS-B
Mon 22:33:03 37.1090 -90.6140 208° Southwest 520 598 40,000  Level FlightAware ADS-B
Mon 22:33:43 37.0240 -90.6710 208° Southwest 523 602 40,000  Level FlightAware ADS-B
Mon 22:34:23 36.9390 -90.7280 208° Southwest 522 601 40,000  Level FlightAware ADS-B
Mon 22:35:05 36.8480 -90.7880 208° Southwest 522 601 40,000  Level FlightAware ADS-B
Mon 22:35:47 36.7610 -90.8460 208° Southwest 520 598 40,000  Level FlightAware ADS-B
Mon 22:36:31 36.6670 -90.9070 208° Southwest 520 598 40,000  Level FlightAware ADS-B
Mon 22:37:11 36.5800 -90.9640 208° Southwest 522 601 40,000  Level FlightAware ADS-B
Mon 22:37:56 36.4870 -91.0260 208° Southwest 522 601 40,000  Level FlightAware ADS-B
Mon 22:38:37 36.3980 -91.0840 208° Southwest 522 601 40,000  Level FlightAware ADS-B
Mon 22:39:21 36.3040 -91.1450 208° Southwest 522 601 40,000  Level FlightAware ADS-B
Mon 22:40:01 36.2170 -91.2010 207° Southwest 523 602 40,000  Level FlightAware ADS-B
Mon 22:40:51 36.1170 -91.2660 208° Southwest 523 602 40,000  Level FlightAware ADS-B
Mon 22:41:39 36.0070 -91.3380 208° Southwest 521 600 40,000  Level FlightAware ADS-B
Mon 22:42:19 35.9240 -91.3920 208° Southwest 520 598 40,000  Level FlightAware ADS-B
Mon 22:43:03 35.8280 -91.4530 207° Southwest 516 594 40,000  Level FlightAware ADS-B
Mon 22:43:43 35.7440 -91.5070 208° Southwest 510 587 40,000  Level FlightAware ADS-B
Mon 22:44:29 35.6480 -91.5680 207° Southwest 509 586 40,000  Level FlightAware ADS-B
Mon 22:45:06 35.5810 -91.6110 208° Southwest 509 586 40,000  Level FlightAware ADS-B
Mon 22:45:47 35.4870 -91.6710 207° Southwest 508 585 40,000  Level FlightAware ADS-B
Mon 22:46:26 35.4180 -91.7150 207° Southwest 508 585 40,000  Level FlightAware ADS-B
Mon 22:47:13 35.3050 -91.7860 207° Southwest 513 590 40,000  Level FlightAware ADS-B
Mon 22:47:51 35.2330 -91.8320 208° Southwest 514 592 40,000  Level FlightAware ADS-B
Mon 22:48:41 35.1430 -91.8880 207° Southwest 514 592 40,000  Level FlightAware ADS-B
Mon 22:49:17 35.0780 -91.9280 207° Southwest 514 592 40,000  Level FlightAware ADS-B
Mon 22:50:06 34.9900 -91.9830 207° Southwest 514 592 40,000  Level FlightAware ADS-B
Mon 22:50:42 34.9250 -92.0240 207° Southwest 514 592 40,000  Level FlightAware ADS-B
Mon 22:51:28 34.8420 -92.0750 207° Southwest 514 592 40,000  Level FlightAware ADS-B
Mon 22:52:04 34.7770 -92.1150 207° Southwest 514 592 40,000  Level FlightAware ADS-B
Mon 22:52:53 34.6890 -92.1700 207° Southwest 514 592 40,000  Level FlightAware ADS-B
Mon 22:53:29 34.6240 -92.2100 207° Southwest 514 592 40,000  Level FlightAware ADS-B
Mon 22:54:30 34.5140 -92.2780 207° Southwest 514 592 40,000  Level FlightAware ADS-B
Mon 22:55:06 34.4490 -92.3180 207° Southwest 514 592 40,000  Level FlightAware ADS-B
Mon 22:55:54 34.3630 -92.3720 207° Southwest 514 592 40,000  Level FlightAware ADS-B
Mon 22:56:28 34.3020 -92.4090 207° Southwest 514 592 40,000  Level FlightAware ADS-B
Mon 22:57:17 34.2130 -92.4640 207° Southwest 514 592 40,000  Level FlightAware ADS-B
Mon 23:00:19 33.5520 -92.3908 175° South 506 582 40,000  Level FlightAware ADS-B
Mon 23:01:13 33.4372 -92.4128 175° South 511 588 40,000  Level Fort Worth Center
Mon 23:02:13 33.2986 -92.4381 189° South 511 588 40,000  Level Fort Worth Center
Mon 23:03:13 33.1761 -92.4575 188° South 511 588 40,000  Level Fort Worth Center
Mon 23:04:13 33.0375 -92.4850 189° South 506 582 40,000  Level Fort Worth Center
Mon 23:09:37 32.2732 -92.6235 189° South 497 572 40,000  Level FlightAware ADS-B
Mon 23:10:53 32.1005 -92.6544 189° South 496 571 40,000  Level FlightAware ADS-B
Mon 23:15:55 31.5476 -93.0887 214° Southwest 485 558 40,000  Level FlightAware ADS-B
Mon 23:16:29 31.4890 -93.1451 219° Southwest 486 559 40,000  Level FlightAware ADS-B
Mon 23:16:59 31.4359 -93.1960 219° Southwest 489 563 40,000  Level FlightAware ADS-B
Mon 23:17:30 31.3826 -93.2470 219° Southwest 489 563 40,000  Level FlightAware ADS-B
Mon 23:18:00 31.3298 -93.2975 219° Southwest 488 562 40,000  Level FlightAware ADS-B
Mon 23:18:30 31.2771 -93.3478 219° Southwest 487 560 40,000 -590 Level FlightAware ADS-B
Mon 23:19:01 31.2233 -93.3991 219° Southwest 481 554 39,400 -1,672 Descending FlightAware ADS-B
Mon 23:19:31 31.1714 -93.4484 219° Southwest 478 550 38,300 -2,262 Descending FlightAware ADS-B
Mon 23:20:02 31.1197 -93.4977 219° Southwest 478 550 37,100 -2,557 Descending FlightAware ADS-B
Mon 23:20:32 31.0677 -93.5469 219° Southwest 481 554 35,700 -3,100 Descending FlightAware ADS-B
Mon 23:21:02 31.0146 -93.5973 219° Southwest 485 558 34,000 -3,500 Descending FlightAware ADS-B
Mon 23:21:32 30.9617 -93.6475 219° Southwest 493 567 32,200 -3,738 Descending FlightAware ADS-B
Mon 23:22:03 30.9074 -93.6989 219° Southwest 502 578 30,200 -4,033 Descending FlightAware ADS-B
Mon 23:22:33 30.8521 -93.7509 219° Southwest 518 596 28,100 -3,700 Descending FlightAware ADS-B
Mon 23:23:03 30.7952 -93.8046 219° Southwest 522 601 26,500 -2,951 Descending FlightAware ADS-B
Mon 23:23:34 30.7390 -93.8574 219° Southwest 514 592 25,100 -2,852 Descending FlightAware ADS-B
Mon 23:24:04 30.6832 -93.9095 219° Southwest 505 581 23,600 -3,000 Descending FlightAware ADS-B
Mon 23:24:34 30.6292 -93.9601 219° Southwest 496 571 22,100 -3,000 Descending FlightAware ADS-B
Mon 23:25:04 30.5750 -94.0108 219° Southwest 488 562 20,600 -2,852 Descending FlightAware ADS-B
Mon 23:25:35 30.5228 -94.0597 219° Southwest 479 551 19,200 -2,852 Descending FlightAware ADS-B
Mon 23:26:05 30.4713 -94.1078 219° Southwest 468 539 17,700 -2,800 Descending FlightAware ADS-B
Mon 23:26:35 30.4215 -94.1547 219° Southwest 457 526 16,400 -2,600 Descending FlightAware ADS-B
Mon 23:27:05 30.3727 -94.2001 219° Southwest 442 509 15,100 -2,500 Descending FlightAware ADS-B
Mon 23:27:35 30.3254 -94.2438 219° Southwest 430 495 13,900 -1,900 Descending FlightAware ADS-B
Mon 23:28:05 30.2796 -94.2863 219° Southwest 405 466 13,200 -1,300 Descending FlightAware ADS-B
Mon 23:28:35 30.2369 -94.3260 219° Southwest 381 438 12,600 -1,317 Descending FlightAware ADS-B
Mon 23:28:46 30.2227 -94.3391 219° Southwest 375 432 12,300 -1,500 Descending FlightAware ADS-B
Mon 23:28:51 30.2160 -94.3460 222° Southwest 371 427 12,200 -1,000 Descending FlightAware ADS-B
Mon 23:28:58 30.2081 -94.3557 227° Southwest 368 423 12,100 -923 Descending FlightAware ADS-B
Mon 23:29:04 30.2014 -94.3657 232° Southwest 365 420 12,000 -1,286 Descending FlightAware ADS-B
Mon 23:29:12 30.1946 -94.3781 238° Southwest 360 414 11,800 -1,125 Descending FlightAware ADS-B
Mon 23:29:20 30.1887 -94.3917 243° Southwest 356 410 11,700 -1,111 Descending FlightAware ADS-B
Mon 23:29:39 30.1779 -94.4255 250° West 347 399 11,300 -1,224 Descending FlightAware ADS-B
Mon 23:30:09 30.1611 -94.4774 249° West 340 391 10,700 -1,200 Descending FlightAware ADS-B
Mon 23:30:39 30.1448 -94.5278 250° West 331 381 10,100 -933 Descending FlightAware ADS-B
Mon 23:30:54 30.1371 -94.5518 250° West 319 367 10,000 -400 Descending FlightAware ADS-B
Mon 23:31:09 30.1295 -94.5752 249° West 306 352 9,900 -400 Descending FlightAware ADS-B
Mon 23:31:24 30.1221 -94.5982 250° West 292 336 9,800 -774 Descending FlightAware ADS-B
Mon 23:31:40 30.1151 -94.6202 250° West 284 327 9,500 -1,355 Descending FlightAware ADS-B
Mon 23:31:55 30.1083 -94.6416 250° West 284 327 9,100 -1,655 Descending FlightAware ADS-B
Mon 23:32:09 30.1018 -94.6614 249° West 284 327 8,700 -1,448 Descending FlightAware ADS-B
Mon 23:32:24 30.0949 -94.6826 249° West 282 325 8,400 -1,200 Descending FlightAware ADS-B
Mon 23:32:39 30.0881 -94.7037 250° West 280 322 8,100 -1,161 Descending FlightAware ADS-B
Mon 23:32:55 30.0810 -94.7257 250° West 277 319 7,800 -1,161 Descending FlightAware ADS-B
Mon 23:33:10 30.0743 -94.7467 250° West 275 316 7,500 -1,200 Descending FlightAware ADS-B
Mon 23:33:25 30.0675 -94.7679 250° West 274 315 7,200 -1,200 Descending FlightAware ADS-B
Mon 23:33:40 30.0610 -94.7883 250° West 272 313 6,900 -1,200 Descending FlightAware ADS-B
Mon 23:33:55 30.0543 -94.8090 250° West 272 313 6,600 -1,161 Descending FlightAware ADS-B
Mon 23:34:11 30.0474 -94.8301 249° West 270 311 6,300 -1,071 Descending FlightAware ADS-B
Mon 23:34:23 30.0423 -94.8457 249° West 269 310 6,100 -1,111 Descending FlightAware ADS-B
Mon 23:34:38 30.0358 -94.8658 250° West 268 308 5,800 -1,400 Descending FlightAware ADS-B
Mon 23:34:53 30.0291 -94.8864 249° West 268 308 5,400 -1,241 Descending FlightAware ADS-B
Mon 23:35:07 30.0227 -94.9059 249° West 266 306 5,200 -1,000 Descending FlightAware ADS-B
Mon 23:35:23 30.0162 -94.9260 250° West 265 305 4,900 -774 Descending FlightAware ADS-B
Mon 23:35:38 30.0097 -94.9463 250° West 265 305 4,800 -400 Descending FlightAware ADS-B
Mon 23:35:53 30.0031 -94.9666 249° West 263 303 4,700 -462 Descending FlightAware ADS-B
Mon 23:36:04 29.9984 -94.9812 250° West 260 299 4,600 -375 Descending FlightAware ADS-B
Mon 23:36:09 29.9967 -94.9867 250° West 261 300 4,600 -750 Level FlightAware ADS-B
Mon 23:36:12 29.9957 -94.9910 255° West 260 299 4,500 -857 Descending FlightAware ADS-B
Mon 23:36:16 29.9947 -94.9961 257° West 261 300 4,500  Level FlightAware ADS-B
Mon 23:36:20 29.9938 -95.0028 261° West 261 300 4,500 -600 Level FlightAware ADS-B
Mon 23:36:26 29.9933 -95.0097 265° West 260 299 4,400 -545 Descending FlightAware ADS-B
Mon 23:36:31 29.9930 -95.0179 268° West 257 296 4,400 -375 Level FlightAware ADS-B
Mon 23:36:42 29.9928 -95.0325 269° West 251 289 4,300 -462 Descending FlightAware ADS-B
Mon 23:36:57 29.9931 -95.0524 271° West 240 276 4,200 -207 Descending FlightAware ADS-B
Mon 23:37:11 29.9933 -95.0691 271° West 231 266 4,200 -414 Level FlightAware ADS-B
Mon 23:37:26 29.9933 -95.0873 270° West 226 260 4,000 -1,000 Descending FlightAware ADS-B
Mon 23:37:41 29.9934 -95.1058 270° West 230 265 3,700 -1,400 Descending FlightAware ADS-B
Mon 23:37:56 29.9934 -95.1246 270° West 233 268 3,300 -1,400 Descending FlightAware ADS-B
Mon 23:38:11 29.9934 -95.1432 270° West 232 267 3,000 -1,200 Descending FlightAware ADS-B
Mon 23:38:26 29.9935 -95.1619 270° West 227 261 2,700 -1,059 Descending FlightAware ADS-B
Mon 23:38:45 29.9935 -95.1832 270° West 215 247 2,400 -1,059 Descending FlightAware ADS-B
Mon 23:39:00 29.9935 -95.1986 270° West 187 215 2,100 -968 Descending FlightAware ADS-B
Mon 23:39:16 29.9934 -95.2131 270° West 162 186 1,900 -774 Descending FlightAware ADS-B
Mon 23:39:31 29.9935 -95.2252 271° West 147 169 1,700 -800 Descending FlightAware ADS-B
Mon 23:39:46 29.9935 -95.2371 270° West 144 166 1,500 -750 Descending FlightAware ADS-B
Mon 23:39:55 29.9934 -95.2436 269° West 143 165 1,400 -750 Descending FlightAware ADS-B
Mon 23:40:10 29.9935 -95.2550 271° West 142 163 1,200 -800 Descending FlightAware ADS-B
Mon 23:40:25 29.9935 -95.2666 270° West 141 162 1,000 -818 Descending FlightAware ADS-B
Mon 23:40:32 29.9935 -95.2717 270° West 141 162 900 -429 Descending FlightAware ADS-B
Mon 23:40:39 29.9934 -95.2768 269° West 140 161 900 -522 Level FlightAware ADS-B
Mon 23:40:55 29.9934 -95.2888 270° West 139 160 700 -774 Descending FlightAware ADS-B
Mon 23:41:10 29.9934 -95.3002 270° West 139 160 500 -667 Descending FlightAware ADS-B
Mon 23:41:22 29.9934 -95.3086 270° West 138 159 400 -828 Descending FlightAware ADS-B
Mon 23:41:39 29.9934 -95.3218 270° West 138 159 100 -1,059 Descending FlightAware ADS-B

Login

Don't have an account? Register now (free) for customized features, flight alerts, and more!